KLGF/LGF METAR and TAF weather

Enter ICAO airport designator
Station Type Date Time Source
KLGF METAR 2021/05/15 23:58 UTC NOAA

KLGF 152358Z AUTO 18015G19KT 10SM CLR 35/M05 A2966 RMK AO2 SLP040 T03511048 10359 20310 57019 $


Station Type Date Time Source
KLGF Decoded METAR 2021/05/15 23:58 UTC NOAA

Station name not available
May 15, 2021 - 07:58 PM EDT / 2021.05.15 2358 UTC
Wind: from the S (180 degrees) at 17 MPH (15 KT) gusting to 22 MPH (19 KT):0
Visibility: 10 mile(s):0
Sky conditions: clear
Temperature: 95.2 F (35.1 C)
Dew Point: 23.4 F (-4.8 C)
Relative Humidity: 7%
Pressure (altimeter): 29.66 in. Hg (1004 hPa)
Pressure tendency: 0.06 inches (1.9 hPa) lower than three hours ago
ob: KLGF 152358Z AUTO 18015G19KT 10SM CLR 35/M05 A2966 RMK AO2 SLP040 T03511048 10359 20310 57019
cycle: 0

Station Type Date Time Source
KLGF TAF UTC NOAA

Error!

Example: see airport list